地図

経路データ

SID SEASON NUMBER BASIN SUBBASIN NAME ISO_TIME NATURE LAT LON WMO_WIND WMO_PRES WMO_AGENCY TRACK_TYPE DIST2LAND LANDFALL IFLAG USA_AGENCY USA_ATCF_ID USA_LAT USA_LON USA_RECORD USA_STATUS USA_WIND USA_PRES USA_SSHS USA_R34_NE USA_R34_SE USA_R34_SW USA_R34_NW USA_R50_NE USA_R50_SE USA_R50_SW USA_R50_NW USA_R64_NE USA_R64_SE USA_R64_SW USA_R64_NW USA_POCI USA_ROCI USA_RMW USA_EYE TOKYO_LAT TOKYO_LON TOKYO_GRADE TOKYO_WIND TOKYO_PRES TOKYO_R50_DIR TOKYO_R50_LONG TOKYO_R50_SHORT TOKYO_R30_DIR TOKYO_R30_LONG TOKYO_R30_SHORT TOKYO_LAND CMA_LAT CMA_LON CMA_CAT CMA_WIND CMA_PRES HKO_LAT HKO_LON HKO_CAT HKO_WIND HKO_PRES NEWDELHI_LAT NEWDELHI_LON NEWDELHI_GRADE NEWDELHI_WIND NEWDELHI_PRES NEWDELHI_CI NEWDELHI_DP NEWDELHI_POCI REUNION_LAT REUNION_LON REUNION_TYPE REUNION_WIND REUNION_PRES REUNION_TNUM REUNION_CI REUNION_RMW REUNION_R34_NE REUNION_R34_SE REUNION_R34_SW REUNION_R34_NW REUNION_R50_NE REUNION_R50_SE REUNION_R50_SW REUNION_R50_NW REUNION_R64_NE REUNION_R64_SE REUNION_R64_SW REUNION_R64_NW BOM_LAT BOM_LON BOM_TYPE BOM_WIND BOM_PRES BOM_TNUM BOM_CI BOM_RMW BOM_R34_NE BOM_R34_SE BOM_R34_SW BOM_R34_NW BOM_R50_NE BOM_R50_SE BOM_R50_SW BOM_R50_NW BOM_R64_NE BOM_R64_SE BOM_R64_SW BOM_R64_NW BOM_ROCI BOM_POCI BOM_EYE BOM_POS_METHOD BOM_PRES_METHOD NADI_LAT NADI_LON NADI_CAT NADI_WIND NADI_PRES WELLINGTON_LAT WELLINGTON_LON WELLINGTON_WIND WELLINGTON_PRES DS824_LAT DS824_LON DS824_STAGE DS824_WIND DS824_PRES TD9636_LAT TD9636_LON TD9636_STAGE TD9636_WIND TD9636_PRES TD9635_LAT TD9635_LON TD9635_WIND TD9635_PRES TD9635_ROCI NEUMANN_LAT NEUMANN_LON NEUMANN_CLASS NEUMANN_WIND NEUMANN_PRES MLC_LAT MLC_LON MLC_CLASS MLC_WIND MLC_PRES USA_GUST BOM_GUST BOM_GUST_PER REUNION_GUST REUNION_GUST_PER USA_SEAHGT USA_SEARAD_NE USA_SEARAD_SE USA_SEARAD_SW USA_SEARAD_NW STORM_SPEED STORM_DIR
1860122S07087 1860 17 SI MM NOT_NAMED 1860-05-01 06:00:00 NR -7.20000 87.2000 spur-split 1432 1432 _____O________ -1 -7.20000 87.2000 99 9.90000 3 253
1860122S07087 1860 17 SI MM NOT_NAMED 1860-05-01 09:00:00 NR -7.24084 87.0657 spur-split 1442 1442 _____P________ -1 -7.24084 87.0657 99 3 253
1860122S07087 1860 17 SI MM NOT_NAMED 1860-05-01 12:00:00 NR -7.28253 86.9252 spur-split 1467 1467 _____P________ -1 -7.28253 86.9252 99 3 254
1860122S07087 1860 17 SI MM NOT_NAMED 1860-05-01 15:00:00 NR -7.32598 86.7722 spur-split 1476 1476 _____P________ -1 -7.32598 86.7722 99 3 254
1860122S07087 1860 17 SI MM NOT_NAMED 1860-05-01 18:00:00 NR -7.37206 86.6003 spur-split 1501 1501 _____P________ -1 -7.37206 86.6003 99 4 255
1860122S07087 1860 17 SI MM NOT_NAMED 1860-05-01 21:00:00 NR -7.42166 86.4035 spur-split 1521 1521 _____P________ -1 -7.42166 86.4035 99 4 256
1860122S07087 1860 17 SI MM NOT_NAMED 1860-05-02 00:00:00 NR -7.47562 86.1754 spur-split 1546 1546 _____P________ -1 -7.47562 86.1754 99 5 257
1860122S07087 1860 17 SI MM NOT_NAMED 1860-05-02 03:00:00 NR -7.53480 85.9096 spur-split 1575 1575 _____P________ -1 -7.53480 85.9096 99 6 258
1860122S07087 1860 17 SI MM NOT_NAMED 1860-05-02 06:00:00 NR -7.60000 85.6000 spur-split 1609 1603 _____O________ -1 -7.60000 85.6000 99 9.90000 7 258
1860122S07087 1860 17 SI MM NOT_NAMED 1860-05-02 09:00:00 NR -7.67195 85.2422 spur-split 1607 1597 _____P________ -1 -7.67195 85.2422 99 8 259
1860122S07087 1860 17 SI MM NOT_NAMED 1860-05-02 12:00:00 NR -7.75110 84.8398 spur-split 1604 1592 _____P________ -1 -7.75110 84.8398 99 9 259
1860122S07087 1860 17 SI MM NOT_NAMED 1860-05-02 15:00:00 NR -7.83783 84.3984 spur-split 1592 1589 _____P________ -1 -7.83783 84.3984 99 9 259
1860122S07087 1860 17 SI MM NOT_NAMED 1860-05-02 18:00:00 NR -7.93255 83.9235 spur-split 1589 1586 _____P________ -1 -7.93255 83.9235 99 10 258
1860122S07087 1860 17 SI MM NOT_NAMED 1860-05-02 21:00:00 NR -8.03567 83.4207 spur-split 1588 1588 _____P________ -1 -8.03567 83.4207 99 10 258
1860122S07087 1860 17 SI MM NOT_NAMED 1860-05-03 00:00:00 NR -8.14764 82.8956 spur-split 1589 1589 _____P________ -1 -8.14764 82.8956 99 11 258
1860122S07087 1860 17 SI MM NOT_NAMED 1860-05-03 03:00:00 NR -8.26891 82.3535 spur-split 1603 1598 _____P________ -1 -8.26891 82.3535 99 11 257
1860122S07087 1860 17 SI MM NOT_NAMED 1860-05-03 06:00:00 NR -8.40000 81.8000 spur-split 1607 1606 _____O________ -1 -8.40000 81.8000 99 9.90000 11 256
1860122S07087 1860 17 SI MM NOT_NAMED 1860-05-03 09:00:00 NR -8.52965 81.2581 spur-split 1615 1614 _____P________ -1 -8.52965 81.2581 99 11 256
1860122S07087 1860 17 SI MM NOT_NAMED 1860-05-03 12:00:00 NR -8.66873 80.6989 spur-split 1636 1635 _____P________ -1 -8.66873 80.6989 99 12 256
1860122S07087 1860 17 SI MM NOT_NAMED 1860-05-03 15:00:00 NR -8.81717 80.1261 spur-split 1648 1648 _____P________ -1 -8.81717 80.1261 99 12 255
1860122S07087 1860 17 SI MM NOT_NAMED 1860-05-03 18:00:00 NR -8.97497 79.5439 spur-split 1674 1674 _____P________ -1 -8.97497 79.5439 99 12 254
1860122S07087 1860 17 SI MM NOT_NAMED 1860-05-03 21:00:00 NR -9.14211 78.9562 spur-split 1690 1690 _____P________ -1 -9.14211 78.9562 99 12 254
1860122S07087 1860 17 SI MM NOT_NAMED 1860-05-04 00:00:00 NR -9.31862 78.3671 spur-split 1720 1720 _____P________ -1 -9.31862 78.3671 99 12 253
1860122S07087 1860 17 SI MM NOT_NAMED 1860-05-04 03:00:00 NR -9.50455 77.7803 spur-split 1753 1753 _____P________ -1 -9.50455 77.7803 99 12 252
1860122S07087 1860 17 SI MM NOT_NAMED 1860-05-04 06:00:00 NR -9.70000 77.2000 reunion spur-split 1788 1788 _____O________ -1 -9.70000 77.2000 99 9.90000 12 251
1860122S07087 1860 17 SI MM NOT_NAMED 1860-05-04 09:00:00 NR -9.89582 76.6160 spur-split 1825 1825 _____P________ -1 -9.89582 76.6160 99 12 251
1860122S07087 1860 17 SI MM NOT_NAMED 1860-05-04 12:00:00 NR -10.1017 76.0332 spur-split 1863 1863 _____P________ -1 -10.1017 76.0332 99 12 250
1860122S07087 1860 17 SI MM NOT_NAMED 1860-05-04 15:00:00 NR -10.3167 75.4557 spur-split 1901 1901 _____P________ -1 -10.3167 75.4557 99 12 249
1860122S07087 1860 17 SI MM NOT_NAMED 1860-05-04 18:00:00 NR -10.5400 74.8879 spur-split 1943 1943 _____P________ -1 -10.5400 74.8879 99 12 248
1860122S07087 1860 17 SI MM NOT_NAMED 1860-05-04 21:00:00 NR -10.7708 74.3340 spur-split 1996 1996 _____P________ -1 -10.7708 74.3340 99 12 246
1860122S07087 1860 17 SI MM NOT_NAMED 1860-05-05 00:00:00 NR -11.0083 73.7985 spur-split 2001 1943 _____P________ -1 -11.0083 73.7985 99 11 245
1860122S07087 1860 17 SI MM NOT_NAMED 1860-05-05 03:00:00 NR -11.2516 73.2857 spur-split 1937 1879 _____P________ -1 -11.2516 73.2857 99 11 243
1860122S07087 1860 17 SI MM NOT_NAMED 1860-05-05 06:00:00 NR -11.5000 72.8000 reunion spur-split 1879 1821 _____O________ -1 -11.5000 72.8000 99 9.90000 11 242
1860122S07087 1860 17 SI MM NOT_NAMED 1860-05-05 09:00:00 NR -11.7555 72.3198 spur-split 1815 1766 _____P________ -1 -11.7555 72.3198 99 11 241
1860122S07087 1860 17 SI MM NOT_NAMED 1860-05-05 12:00:00 NR -12.0186 71.8631 spur-split 1766 1711 _____P________ -1 -12.0186 71.8631 99 10 239
1860122S07087 1860 17 SI MM NOT_NAMED 1860-05-05 15:00:00 NR -12.2865 71.4313 spur-split 1702 1653 _____P________ -1 -12.2865 71.4313 99 10 237
1860122S07087 1860 17 SI MM NOT_NAMED 1860-05-05 18:00:00 NR -12.5564 71.0260 spur-split 1647 1608 _____P________ -1 -12.5564 71.0260 99 9 235
1860122S07087 1860 17 SI MM NOT_NAMED 1860-05-05 21:00:00 NR -12.8255 70.6486 spur-split 1599 1553 _____P________ -1 -12.8255 70.6486 99 9 233
1860122S07087 1860 17 SI MM NOT_NAMED 1860-05-06 00:00:00 NR -13.0910 70.3007 spur-split 1553 1514 _____P________ -1 -13.0910 70.3007 99 8 231
1860122S07087 1860 17 SI MM NOT_NAMED 1860-05-06 03:00:00 NR -13.3501 69.9840 spur-split 1508 1469 _____P________ -1 -13.3501 69.9840 99 8 229
1860122S07087 1860 17 SI MM NOT_NAMED 1860-05-06 06:00:00 NR -13.6000 69.7000 reunion spur-split 1469 1438 _____O________ -1 -13.6000 69.7000 99 9.90000 7 227
1860122S07087 1860 17 SI MM NOT_NAMED 1860-05-06 09:00:00 NR -13.8386 69.4495 spur-split 1429 1393 _____P________ -1 -13.8386 69.4495 99 7 224
1860122S07087 1860 17 SI MM NOT_NAMED 1860-05-06 12:00:00 NR -14.0667 69.2292 spur-split 1393 1364 _____P________ -1 -14.0667 69.2292 99 6 222
1860122S07087 1860 17 SI MM NOT_NAMED 1860-05-06 15:00:00 NR -14.2858 69.0348 spur-split 1364 1343 _____P________ -1 -14.2858 69.0348 99 6 220
1860122S07087 1860 17 SI MM NOT_NAMED 1860-05-06 18:00:00 NR -14.4976 68.8620 spur-split 1343 1313 _____P________ -1 -14.4976 68.8620 99 5 217
1860122S07087 1860 17 SI MM NOT_NAMED 1860-05-06 21:00:00 NR -14.7034 68.7065 spur-split 1313 1293 _____P________ -1 -14.7034 68.7065 99 5 215
1860122S07087 1860 17 SI MM NOT_NAMED 1860-05-07 00:00:00 NR -14.9047 68.5639 spur-split 1293 1264 _____P________ -1 -14.9047 68.5639 99 5 214
1860122S07087 1860 17 SI MM NOT_NAMED 1860-05-07 03:00:00 NR -15.1031 68.4299 spur-split 1264 1244 _____P________ -1 -15.1031 68.4299 99 5 213
1860122S07087 1860 17 SI MM NOT_NAMED 1860-05-07 06:00:00 NR -15.3000 68.3000 reunion spur-split 1244 _____O________ -1 -15.3000 68.3000 99 9.90000 5 213

IBTrACS Databaseについて

本データベースは、米国NOAAが公開する1842年以降の世界の熱帯低気圧のベストトラックデータアーカイブInternational Best Track Archive for Climate Stewardship (IBTrACS)を、ウェブで閲覧しやすい形式に変換したものです。

最終更新日:2021-10-21